sensor_id;sensor_type;location;lat;lon;timestamp;P1;durP1;ratioP1;P2;durP2;ratioP2
66663;SDS011;59683;51.428;-1.994;2023-05-07T01:14:42;83.60;;;23.30;;
66663;SDS011;59683;51.428;-1.994;2023-05-07T01:27:22;79.80;;;20.20;;
66663;SDS011;59683;51.428;-1.994;2023-05-07T01:29:47;79.73;;;21.60;;
66663;SDS011;59683;51.428;-1.994;2023-05-07T01:32:13;80.67;;;21.87;;
66663;SDS011;59683;51.428;-1.994;2023-05-07T01:34:40;65.30;;;18.87;;
66663;SDS011;59683;51.428;-1.994;2023-05-07T01:37:08;72.40;;;19.80;;
66663;SDS011;59683;51.428;-1.994;2023-05-07T01:39:35;73.03;;;20.60;;
66663;SDS011;59683;51.428;-1.994;2023-05-07T01:42:07;75.70;;;22.47;;
66663;SDS011;59683;51.428;-1.994;2023-05-07T01:44:32;74.37;;;20.70;;
66663;SDS011;59683;51.428;-1.994;2023-05-07T01:47:05;66.67;;;18.90;;
66663;SDS011;59683;51.428;-1.994;2023-05-07T01:50:09;66.88;;;20.02;;
66663;SDS011;59683;51.428;-1.994;2023-05-07T01:52:36;66.17;;;19.40;;
66663;SDS011;59683;51.428;-1.994;2023-05-07T01:57:48;76.20;;;20.40;;
66663;SDS011;59683;51.428;-1.994;2023-05-07T02:00:17;84.07;;;21.07;;
66663;SDS011;59683;51.428;-1.994;2023-05-07T02:02:44;76.73;;;21.77;;
66663;SDS011;59683;51.428;-1.994;2023-05-07T02:05:09;86.67;;;22.20;;
66663;SDS011;59683;51.428;-1.994;2023-05-07T02:07:35;87.57;;;23.30;;
66663;SDS011;59683;51.428;-1.994;2023-05-07T02:10:03;88.27;;;22.60;;
66663;SDS011;59683;51.428;-1.994;2023-05-07T02:12:32;76.40;;;21.87;;
66663;SDS011;59683;51.428;-1.994;2023-05-07T02:14:57;83.00;;;23.17;;
66663;SDS011;59683;51.428;-1.994;2023-05-07T02:17:23;79.20;;;21.10;;
66663;SDS011;59683;51.428;-1.994;2023-05-07T02:19:48;79.73;;;22.53;;
66663;SDS011;59683;51.428;-1.994;2023-05-07T02:22:14;80.73;;;21.93;;
66663;SDS011;59683;51.428;-1.994;2023-05-07T02:24:40;87.87;;;21.83;;
66663;SDS011;59683;51.428;-1.994;2023-05-07T02:27:05;106.23;;;22.90;;
66663;SDS011;59683;51.428;-1.994;2023-05-07T02:29:31;99.50;;;23.67;;
66663;SDS011;59683;51.428;-1.994;2023-05-07T02:31:57;89.33;;;23.70;;
66663;SDS011;59683;51.428;-1.994;2023-05-07T02:34:22;91.53;;;24.53;;
66663;SDS011;59683;51.428;-1.994;2023-05-07T02:36:48;100.70;;;22.73;;
66663;SDS011;59683;51.428;-1.994;2023-05-07T02:39:13;86.00;;;22.40;;
66663;SDS011;59683;51.428;-1.994;2023-05-07T02:42:01;108.73;;;23.13;;
66663;SDS011;59683;51.428;-1.994;2023-05-07T02:44:28;106.73;;;23.10;;
66663;SDS011;59683;51.428;-1.994;2023-05-07T02:46:56;129.80;;;25.20;;
66663;SDS011;59683;51.428;-1.994;2023-05-07T02:49:21;129.63;;;23.60;;
66663;SDS011;59683;51.428;-1.994;2023-05-07T02:51:47;154.93;;;25.37;;
66663;SDS011;59683;51.428;-1.994;2023-05-07T02:54:12;182.33;;;27.90;;
66663;SDS011;59683;51.428;-1.994;2023-05-07T02:56:38;115.63;;;24.30;;
66663;SDS011;59683;51.428;-1.994;2023-05-07T02:59:03;98.40;;;23.97;;
66663;SDS011;59683;51.428;-1.994;2023-05-07T03:01:28;113.10;;;26.43;;
66663;SDS011;59683;51.428;-1.994;2023-05-07T03:03:54;104.70;;;22.83;;
66663;SDS011;59683;51.428;-1.994;2023-05-07T03:06:20;92.20;;;22.17;;
66663;SDS011;59683;51.428;-1.994;2023-05-07T03:08:45;97.67;;;23.00;;
66663;SDS011;59683;51.428;-1.994;2023-05-07T03:11:14;91.53;;;22.53;;
66663;SDS011;59683;51.428;-1.994;2023-05-07T03:13:39;106.17;;;25.90;;
66663;SDS011;59683;51.428;-1.994;2023-05-07T03:16:05;108.30;;;25.27;;
66663;SDS011;59683;51.428;-1.994;2023-05-07T03:18:31;130.13;;;27.23;;
66663;SDS011;59683;51.428;-1.994;2023-05-07T03:20:56;114.57;;;25.47;;
66663;SDS011;59683;51.428;-1.994;2023-05-07T03:23:22;103.33;;;26.17;;
66663;SDS011;59683;51.428;-1.994;2023-05-07T03:25:47;91.37;;;23.47;;
66663;SDS011;59683;51.428;-1.994;2023-05-07T03:28:13;85.73;;;23.13;;
66663;SDS011;59683;51.428;-1.994;2023-05-07T03:30:41;72.13;;;21.13;;
66663;SDS011;59683;51.428;-1.994;2023-05-07T03:33:09;75.35;;;20.95;;
66663;SDS011;59683;51.428;-1.994;2023-05-07T03:38:58;81.87;;;23.03;;
66663;SDS011;59683;51.428;-1.994;2023-05-07T03:44:36;89.87;;;23.10;;
66663;SDS011;59683;51.428;-1.994;2023-05-07T03:47:24;89.70;;;23.13;;
66663;SDS011;59683;51.428;-1.994;2023-05-07T03:49:58;82.80;;;23.50;;
66663;SDS011;59683;51.428;-1.994;2023-05-07T03:52:24;98.10;;;21.63;;
66663;SDS011;59683;51.428;-1.994;2023-05-07T03:54:53;92.10;;;22.60;;
66663;SDS011;59683;51.428;-1.994;2023-05-07T03:57:26;101.10;;;22.43;;
66663;SDS011;59683;51.428;-1.994;2023-05-07T03:59:51;119.63;;;24.48;;
66663;SDS011;59683;51.428;-1.994;2023-05-07T04:02:20;70.70;;;21.50;;
66663;SDS011;59683;51.428;-1.994;2023-05-07T04:04:47;76.67;;;19.73;;
66663;SDS011;59683;51.428;-1.994;2023-05-07T04:07:13;84.10;;;21.53;;
66663;SDS011;59683;51.428;-1.994;2023-05-07T04:09:56;87.57;;;20.10;;
66663;SDS011;59683;51.428;-1.994;2023-05-07T04:12:26;74.60;;;21.20;;
66663;SDS011;59683;51.428;-1.994;2023-05-07T04:14:57;81.23;;;20.73;;
66663;SDS011;59683;51.428;-1.994;2023-05-07T04:17:23;96.83;;;21.00;;
66663;SDS011;59683;51.428;-1.994;2023-05-07T04:19:49;77.67;;;21.00;;
66663;SDS011;59683;51.428;-1.994;2023-05-07T04:22:14;101.77;;;21.27;;
66663;SDS011;59683;51.428;-1.994;2023-05-07T04:24:40;83.03;;;20.93;;
66663;SDS011;59683;51.428;-1.994;2023-05-07T04:27:25;81.70;;;20.17;;
66663;SDS011;59683;51.428;-1.994;2023-05-07T04:29:51;84.87;;;21.07;;
66663;SDS011;59683;51.428;-1.994;2023-05-07T04:32:28;58.87;;;17.30;;
66663;SDS011;59683;51.428;-1.994;2023-05-07T04:35:02;50.60;;;15.83;;
66663;SDS011;59683;51.428;-1.994;2023-05-07T04:37:39;48.70;;;16.23;;
66663;SDS011;59683;51.428;-1.994;2023-05-07T04:40:05;53.43;;;16.77;;
66663;SDS011;59683;51.428;-1.994;2023-05-07T04:42:31;53.77;;;17.07;;
66663;SDS011;59683;51.428;-1.994;2023-05-07T04:45:01;49.93;;;15.57;;
66663;SDS011;59683;51.428;-1.994;2023-05-07T04:47:27;45.13;;;14.27;;
66663;SDS011;59683;51.428;-1.994;2023-05-07T04:49:55;47.40;;;15.60;;
66663;SDS011;59683;51.428;-1.994;2023-05-07T04:52:27;42.80;;;15.13;;
66663;SDS011;59683;51.428;-1.994;2023-05-07T04:54:52;46.50;;;14.90;;
66663;SDS011;59683;51.428;-1.994;2023-05-07T04:57:18;52.33;;;15.50;;
66663;SDS011;59683;51.428;-1.994;2023-05-07T04:59:55;55.80;;;16.53;;
66663;SDS011;59683;51.428;-1.994;2023-05-07T05:02:33;45.70;;;15.93;;
66663;SDS011;59683;51.428;-1.994;2023-05-07T05:04:58;62.37;;;15.93;;
66663;SDS011;59683;51.428;-1.994;2023-05-07T05:07:27;65.70;;;16.33;;
66663;SDS011;59683;51.428;-1.994;2023-05-07T05:09:56;63.13;;;15.97;;
66663;SDS011;59683;51.428;-1.994;2023-05-07T05:12:22;54.57;;;15.47;;
66663;SDS011;59683;51.428;-1.994;2023-05-07T05:14:50;50.00;;;15.87;;
66663;SDS011;59683;51.428;-1.994;2023-05-07T05:17:21;70.23;;;16.90;;
66663;SDS011;59683;51.428;-1.994;2023-05-07T05:19:47;74.80;;;16.17;;
66663;SDS011;59683;51.428;-1.994;2023-05-07T05:22:13;69.10;;;18.53;;
66663;SDS011;59683;51.428;-1.994;2023-05-07T05:24:38;65.60;;;16.57;;
66663;SDS011;59683;51.428;-1.994;2023-05-07T05:27:07;63.23;;;15.60;;
66663;SDS011;59683;51.428;-1.994;2023-05-07T05:29:35;65.90;;;16.03;;
66663;SDS011;59683;51.428;-1.994;2023-05-07T05:32:00;56.40;;;15.60;;
66663;SDS011;59683;51.428;-1.994;2023-05-07T05:34:26;80.80;;;16.00;;
66663;SDS011;59683;51.428;-1.994;2023-05-07T05:36:52;63.07;;;15.70;;
66663;SDS011;59683;51.428;-1.994;2023-05-07T05:39:21;43.60;;;15.43;;
66663;SDS011;59683;51.428;-1.994;2023-05-07T05:41:48;38.33;;;13.67;;
66663;SDS011;59683;51.428;-1.994;2023-05-07T05:44:16;47.10;;;15.00;;
66663;SDS011;59683;51.428;-1.994;2023-05-07T05:46:46;39.20;;;14.87;;
66663;SDS011;59683;51.428;-1.994;2023-05-07T05:49:14;42.80;;;15.85;;
66663;SDS011;59683;51.428;-1.994;2023-05-07T05:51:42;46.63;;;14.80;;
66663;SDS011;59683;51.428;-1.994;2023-05-07T05:54:11;37.60;;;14.40;;
66663;SDS011;59683;51.428;-1.994;2023-05-07T05:56:36;39.30;;;14.03;;
66663;SDS011;59683;51.428;-1.994;2023-05-07T05:59:02;44.80;;;13.73;;
66663;SDS011;59683;51.428;-1.994;2023-05-07T06:01:28;38.47;;;15.43;;
66663;SDS011;59683;51.428;-1.994;2023-05-07T06:03:54;43.43;;;14.80;;
66663;SDS011;59683;51.428;-1.994;2023-05-07T06:06:19;34.77;;;15.03;;
66663;SDS011;59683;51.428;-1.994;2023-05-07T06:08:54;29.07;;;13.10;;
66663;SDS011;59683;51.428;-1.994;2023-05-07T06:11:20;30.87;;;13.73;;
66663;SDS011;59683;51.428;-1.994;2023-05-07T06:13:45;27.17;;;13.07;;
66663;SDS011;59683;51.428;-1.994;2023-05-07T06:16:11;28.13;;;12.90;;
66663;SDS011;59683;51.428;-1.994;2023-05-07T06:18:36;20.47;;;11.63;;
66663;SDS011;59683;51.428;-1.994;2023-05-07T06:21:04;22.80;;;12.13;;
66663;SDS011;59683;51.428;-1.994;2023-05-07T06:23:30;18.80;;;10.63;;
66663;SDS011;59683;51.428;-1.994;2023-05-07T06:25:55;18.10;;;10.20;;
66663;SDS011;59683;51.428;-1.994;2023-05-07T06:28:21;18.27;;;10.60;;
66663;SDS011;59683;51.428;-1.994;2023-05-07T06:30:46;18.83;;;10.07;;
66663;SDS011;59683;51.428;-1.994;2023-05-07T06:33:12;21.10;;;11.57;;
66663;SDS011;59683;51.428;-1.994;2023-05-07T06:35:37;24.07;;;12.13;;
66663;SDS011;59683;51.428;-1.994;2023-05-07T06:38:03;17.27;;;10.23;;
66663;SDS011;59683;51.428;-1.994;2023-05-07T06:40:28;20.03;;;11.00;;
66663;SDS011;59683;51.428;-1.994;2023-05-07T06:42:53;16.27;;;9.57;;
66663;SDS011;59683;51.428;-1.994;2023-05-07T06:45:19;18.23;;;9.67;;
66663;SDS011;59683;51.428;-1.994;2023-05-07T06:47:45;16.97;;;9.93;;
66663;SDS011;59683;51.428;-1.994;2023-05-07T06:50:10;16.10;;;8.97;;
66663;SDS011;59683;51.428;-1.994;2023-05-07T06:52:36;16.63;;;10.17;;
66663;SDS011;59683;51.428;-1.994;2023-05-07T06:55:01;19.37;;;10.27;;
66663;SDS011;59683;51.428;-1.994;2023-05-07T06:57:27;17.10;;;9.50;;
66663;SDS011;59683;51.428;-1.994;2023-05-07T06:59:52;17.10;;;8.83;;
66663;SDS011;59683;51.428;-1.994;2023-05-07T07:02:18;14.97;;;8.90;;
66663;SDS011;59683;51.428;-1.994;2023-05-07T07:04:43;17.67;;;8.97;;
66663;SDS011;59683;51.428;-1.994;2023-05-07T07:07:10;17.93;;;10.00;;
66663;SDS011;59683;51.428;-1.994;2023-05-07T07:09:35;16.73;;;9.00;;
66663;SDS011;59683;51.428;-1.994;2023-05-07T07:12:00;18.23;;;9.10;;
66663;SDS011;59683;51.428;-1.994;2023-05-07T07:14:26;17.10;;;8.77;;
66663;SDS011;59683;51.428;-1.994;2023-05-07T07:16:51;22.03;;;9.93;;
66663;SDS011;59683;51.428;-1.994;2023-05-07T07:19:17;18.60;;;9.20;;
66663;SDS011;59683;51.428;-1.994;2023-05-07T07:21:42;21.10;;;9.93;;
66663;SDS011;59683;51.428;-1.994;2023-05-07T07:24:08;16.37;;;9.00;;
66663;SDS011;59683;51.428;-1.994;2023-05-07T07:26:33;15.63;;;8.70;;
66663;SDS011;59683;51.428;-1.994;2023-05-07T07:29:02;12.83;;;6.47;;
66663;SDS011;59683;51.428;-1.994;2023-05-07T07:31:27;12.87;;;7.10;;
66663;SDS011;59683;51.428;-1.994;2023-05-07T07:33:53;13.40;;;7.17;;
66663;SDS011;59683;51.428;-1.994;2023-05-07T07:36:18;14.50;;;6.77;;
66663;SDS011;59683;51.428;-1.994;2023-05-07T07:38:43;15.03;;;6.10;;
66663;SDS011;59683;51.428;-1.994;2023-05-07T07:41:09;11.53;;;6.87;;
66663;SDS011;59683;51.428;-1.994;2023-05-07T07:43:34;12.07;;;6.93;;
66663;SDS011;59683;51.428;-1.994;2023-05-07T07:46:00;14.70;;;8.27;;
66663;SDS011;59683;51.428;-1.994;2023-05-07T07:48:26;15.13;;;7.30;;
66663;SDS011;59683;51.428;-1.994;2023-05-07T07:50:51;14.93;;;7.13;;
66663;SDS011;59683;51.428;-1.994;2023-05-07T07:53:17;12.97;;;7.03;;
66663;SDS011;59683;51.428;-1.994;2023-05-07T07:55:42;16.57;;;8.20;;
66663;SDS011;59683;51.428;-1.994;2023-05-07T07:58:07;13.23;;;7.07;;
66663;SDS011;59683;51.428;-1.994;2023-05-07T08:00:36;15.27;;;7.60;;
66663;SDS011;59683;51.428;-1.994;2023-05-07T08:03:02;14.40;;;7.60;;
66663;SDS011;59683;51.428;-1.994;2023-05-07T08:05:28;15.97;;;7.47;;
66663;SDS011;59683;51.428;-1.994;2023-05-07T08:07:54;16.70;;;8.17;;
66663;SDS011;59683;51.428;-1.994;2023-05-07T08:10:20;14.40;;;7.50;;
66663;SDS011;59683;51.428;-1.994;2023-05-07T08:12:47;11.93;;;7.10;;
66663;SDS011;59683;51.428;-1.994;2023-05-07T08:15:16;11.33;;;6.53;;
66663;SDS011;59683;51.428;-1.994;2023-05-07T08:17:42;13.20;;;6.33;;
66663;SDS011;59683;51.428;-1.994;2023-05-07T08:20:08;11.97;;;6.63;;
66663;SDS011;59683;51.428;-1.994;2023-05-07T08:22:34;14.13;;;6.80;;
66663;SDS011;59683;51.428;-1.994;2023-05-07T08:25:03;13.63;;;6.50;;
66663;SDS011;59683;51.428;-1.994;2023-05-07T08:27:29;13.80;;;6.50;;
66663;SDS011;59683;51.428;-1.994;2023-05-07T08:29:54;11.37;;;6.77;;
66663;SDS011;59683;51.428;-1.994;2023-05-07T08:32:20;13.27;;;5.83;;
66663;SDS011;59683;51.428;-1.994;2023-05-07T08:34:45;8.63;;;5.33;;
66663;SDS011;59683;51.428;-1.994;2023-05-07T08:37:11;11.17;;;5.70;;
66663;SDS011;59683;51.428;-1.994;2023-05-07T08:39:36;10.37;;;5.40;;
66663;SDS011;59683;51.428;-1.994;2023-05-07T08:42:02;11.40;;;5.53;;
66663;SDS011;59683;51.428;-1.994;2023-05-07T08:44:31;11.67;;;6.13;;
66663;SDS011;59683;51.428;-1.994;2023-05-07T08:47:01;11.17;;;6.27;;
66663;SDS011;59683;51.428;-1.994;2023-05-07T08:49:27;10.30;;;5.90;;
66663;SDS011;59683;51.428;-1.994;2023-05-07T08:51:53;10.20;;;5.33;;
66663;SDS011;59683;51.428;-1.994;2023-05-07T08:54:20;9.93;;;5.80;;
66663;SDS011;59683;51.428;-1.994;2023-05-07T08:56:49;11.27;;;5.17;;
66663;SDS011;59683;51.428;-1.994;2023-05-07T08:59:14;9.63;;;5.40;;
66663;SDS011;59683;51.428;-1.994;2023-05-07T09:01:40;10.33;;;5.23;;
66663;SDS011;59683;51.428;-1.994;2023-05-07T09:04:05;16.60;;;6.27;;
66663;SDS011;59683;51.428;-1.994;2023-05-07T09:06:32;12.97;;;6.50;;
66663;SDS011;59683;51.428;-1.994;2023-05-07T09:08:58;13.43;;;7.13;;
66663;SDS011;59683;51.428;-1.994;2023-05-07T09:11:26;10.83;;;6.53;;
66663;SDS011;59683;51.428;-1.994;2023-05-07T09:13:55;14.77;;;7.47;;
66663;SDS011;59683;51.428;-1.994;2023-05-07T09:16:23;14.60;;;7.27;;
66663;SDS011;59683;51.428;-1.994;2023-05-07T09:18:50;13.00;;;7.20;;
66663;SDS011;59683;51.428;-1.994;2023-05-07T09:21:17;12.70;;;7.27;;
66663;SDS011;59683;51.428;-1.994;2023-05-07T09:23:43;16.33;;;7.70;;
66663;SDS011;59683;51.428;-1.994;2023-05-07T09:26:09;15.20;;;8.13;;
66663;SDS011;59683;51.428;-1.994;2023-05-07T09:28:43;16.47;;;7.93;;
66663;SDS011;59683;51.428;-1.994;2023-05-07T09:31:10;13.70;;;7.33;;
66663;SDS011;59683;51.428;-1.994;2023-05-07T09:33:36;17.57;;;8.63;;
66663;SDS011;59683;51.428;-1.994;2023-05-07T09:36:06;19.40;;;9.47;;
66663;SDS011;59683;51.428;-1.994;2023-05-07T09:38:33;16.10;;;9.98;;
66663;SDS011;59683;51.428;-1.994;2023-05-07T09:41:03;18.57;;;9.33;;
66663;SDS011;59683;51.428;-1.994;2023-05-07T09:43:36;19.20;;;10.40;;
66663;SDS011;59683;51.428;-1.994;2023-05-07T09:46:03;18.27;;;8.17;;
66663;SDS011;59683;51.428;-1.994;2023-05-07T09:48:35;15.83;;;7.83;;
66663;SDS011;59683;51.428;-1.994;2023-05-07T09:51:02;15.23;;;7.47;;
66663;SDS011;59683;51.428;-1.994;2023-05-07T09:53:31;13.87;;;7.23;;
66663;SDS011;59683;51.428;-1.994;2023-05-07T09:55:58;11.83;;;6.30;;
66663;SDS011;59683;51.428;-1.994;2023-05-07T09:58:25;12.33;;;5.93;;
66663;SDS011;59683;51.428;-1.994;2023-05-07T10:00:51;8.27;;;5.00;;
66663;SDS011;59683;51.428;-1.994;2023-05-07T10:03:17;9.93;;;5.47;;
66663;SDS011;59683;51.428;-1.994;2023-05-07T10:05:44;9.00;;;5.20;;
66663;SDS011;59683;51.428;-1.994;2023-05-07T10:08:11;9.50;;;5.10;;
66663;SDS011;59683;51.428;-1.994;2023-05-07T10:10:36;10.70;;;4.80;;
66663;SDS011;59683;51.428;-1.994;2023-05-07T10:13:02;9.27;;;4.47;;
66663;SDS011;59683;51.428;-1.994;2023-05-07T10:15:30;10.07;;;4.53;;
66663;SDS011;59683;51.428;-1.994;2023-05-07T10:17:56;9.10;;;4.27;;
66663;SDS011;59683;51.428;-1.994;2023-05-07T10:20:22;11.30;;;4.63;;
66663;SDS011;59683;51.428;-1.994;2023-05-07T10:22:48;9.50;;;4.37;;
66663;SDS011;59683;51.428;-1.994;2023-05-07T10:25:20;8.67;;;4.40;;
66663;SDS011;59683;51.428;-1.994;2023-05-07T10:27:50;10.53;;;4.93;;
66663;SDS011;59683;51.428;-1.994;2023-05-07T10:30:34;11.63;;;4.90;;
66663;SDS011;59683;51.428;-1.994;2023-05-07T10:33:23;14.27;;;4.77;;
66663;SDS011;59683;51.428;-1.994;2023-05-07T10:35:51;11.60;;;4.47;;
66663;SDS011;59683;51.428;-1.994;2023-05-07T10:38:25;11.73;;;4.87;;
66663;SDS011;59683;51.428;-1.994;2023-05-07T10:40:51;11.00;;;5.07;;
66663;SDS011;59683;51.428;-1.994;2023-05-07T10:43:17;10.07;;;4.40;;
66663;SDS011;59683;51.428;-1.994;2023-05-07T10:45:43;9.23;;;4.30;;
66663;SDS011;59683;51.428;-1.994;2023-05-07T10:48:10;9.60;;;4.07;;
66663;SDS011;59683;51.428;-1.994;2023-05-07T10:50:36;7.83;;;3.67;;
66663;SDS011;59683;51.428;-1.994;2023-05-07T10:55:47;18.13;;;4.60;;
66663;SDS011;59683;51.428;-1.994;2023-05-07T10:58:23;7.87;;;4.00;;
66663;SDS011;59683;51.428;-1.994;2023-05-07T11:00:55;11.20;;;4.40;;
66663;SDS011;59683;51.428;-1.994;2023-05-07T11:03:22;11.07;;;3.80;;
66663;SDS011;59683;51.428;-1.994;2023-05-07T11:05:47;11.07;;;4.33;;
66663;SDS011;59683;51.428;-1.994;2023-05-07T11:08:52;10.13;;;3.43;;
66663;SDS011;59683;51.428;-1.994;2023-05-07T11:11:17;6.47;;;2.90;;
66663;SDS011;59683;51.428;-1.994;2023-05-07T11:13:47;8.47;;;3.33;;
66663;SDS011;59683;51.428;-1.994;2023-05-07T11:16:19;7.17;;;3.10;;
66663;SDS011;59683;51.428;-1.994;2023-05-07T11:18:48;8.70;;;3.43;;
66663;SDS011;59683;51.428;-1.994;2023-05-07T11:24:01;14.60;;;4.90;;
66663;SDS011;59683;51.428;-1.994;2023-05-07T11:26:28;10.03;;;4.10;;
66663;SDS011;59683;51.428;-1.994;2023-05-07T11:28:56;8.50;;;3.13;;
66663;SDS011;59683;51.428;-1.994;2023-05-07T11:31:26;8.90;;;3.47;;
66663;SDS011;59683;51.428;-1.994;2023-05-07T11:33:53;11.07;;;3.30;;
66663;SDS011;59683;51.428;-1.994;2023-05-07T11:36:21;8.05;;;3.85;;
66663;SDS011;59683;51.428;-1.994;2023-05-07T11:38:47;10.15;;;3.90;;
66663;SDS011;59683;51.428;-1.994;2023-05-07T11:41:13;10.23;;;4.50;;
66663;SDS011;59683;51.428;-1.994;2023-05-07T11:43:40;10.10;;;5.63;;
66663;SDS011;59683;51.428;-1.994;2023-05-07T11:46:20;10.25;;;5.90;;
66663;SDS011;59683;51.428;-1.994;2023-05-07T11:48:45;10.88;;;6.00;;
66663;SDS011;59683;51.428;-1.994;2023-05-07T11:51:10;11.85;;;6.28;;
66663;SDS011;59683;51.428;-1.994;2023-05-07T11:53:39;12.38;;;5.72;;
66663;SDS011;59683;51.428;-1.994;2023-05-07T11:56:06;14.02;;;7.10;;
66663;SDS011;59683;51.428;-1.994;2023-05-07T11:58:35;12.52;;;7.53;;
66663;SDS011;59683;51.428;-1.994;2023-05-07T12:01:01;10.93;;;7.57;;
66663;SDS011;59683;51.428;-1.994;2023-05-07T12:03:27;15.07;;;9.30;;
66663;SDS011;59683;51.428;-1.994;2023-05-07T12:05:52;18.27;;;8.75;;
66663;SDS011;59683;51.428;-1.994;2023-05-07T12:08:18;13.60;;;8.55;;
66663;SDS011;59683;51.428;-1.994;2023-05-07T12:10:48;13.00;;;8.95;;
66663;SDS011;59683;51.428;-1.994;2023-05-07T12:13:18;14.70;;;9.02;;
66663;SDS011;59683;51.428;-1.994;2023-05-07T12:15:47;15.75;;;8.88;;
66663;SDS011;59683;51.428;-1.994;2023-05-07T12:18:16;14.45;;;8.57;;
66663;SDS011;59683;51.428;-1.994;2023-05-07T12:20:41;14.68;;;8.48;;
66663;SDS011;59683;51.428;-1.994;2023-05-07T12:23:07;13.35;;;8.05;;
66663;SDS011;59683;51.428;-1.994;2023-05-07T12:25:36;12.45;;;7.97;;
66663;SDS011;59683;51.428;-1.994;2023-05-07T12:28:02;12.57;;;8.55;;
66663;SDS011;59683;51.428;-1.994;2023-05-07T12:30:32;14.07;;;8.90;;
66663;SDS011;59683;51.428;-1.994;2023-05-07T12:33:02;15.48;;;8.65;;
66663;SDS011;59683;51.428;-1.994;2023-05-07T12:35:28;15.25;;;9.10;;
66663;SDS011;59683;51.428;-1.994;2023-05-07T12:37:54;13.48;;;9.13;;
66663;SDS011;59683;51.428;-1.994;2023-05-07T12:40:20;16.15;;;9.77;;
66663;SDS011;59683;51.428;-1.994;2023-05-07T12:42:46;14.98;;;8.32;;
66663;SDS011;59683;51.428;-1.994;2023-05-07T12:45:12;13.98;;;8.82;;
66663;SDS011;59683;51.428;-1.994;2023-05-07T12:47:43;12.15;;;7.88;;
66663;SDS011;59683;51.428;-1.994;2023-05-07T12:50:18;15.98;;;9.90;;
66663;SDS011;59683;51.428;-1.994;2023-05-07T12:52:49;13.60;;;8.55;;
66663;SDS011;59683;51.428;-1.994;2023-05-07T12:55:15;12.68;;;8.10;;
66663;SDS011;59683;51.428;-1.994;2023-05-07T12:57:42;14.20;;;8.57;;
66663;SDS011;59683;51.428;-1.994;2023-05-07T13:00:11;16.00;;;8.60;;
66663;SDS011;59683;51.428;-1.994;2023-05-07T13:02:37;10.98;;;6.80;;
66663;SDS011;59683;51.428;-1.994;2023-05-07T13:05:04;11.57;;;6.85;;
66663;SDS011;59683;51.428;-1.994;2023-05-07T13:07:29;10.38;;;6.15;;
66663;SDS011;59683;51.428;-1.994;2023-05-07T13:09:55;12.15;;;6.47;;
66663;SDS011;59683;51.428;-1.994;2023-05-07T13:12:20;10.65;;;6.32;;
66663;SDS011;59683;51.428;-1.994;2023-05-07T13:14:45;12.00;;;5.53;;
66663;SDS011;59683;51.428;-1.994;2023-05-07T13:17:11;8.75;;;4.60;;
66663;SDS011;59683;51.428;-1.994;2023-05-07T13:19:36;10.32;;;5.28;;
66663;SDS011;59683;51.428;-1.994;2023-05-07T13:22:05;9.23;;;5.13;;
66663;SDS011;59683;51.428;-1.994;2023-05-07T13:24:30;8.75;;;4.45;;
66663;SDS011;59683;51.428;-1.994;2023-05-07T13:26:59;8.65;;;3.90;;
66663;SDS011;59683;51.428;-1.994;2023-05-07T13:29:25;7.43;;;4.00;;
66663;SDS011;59683;51.428;-1.994;2023-05-07T13:31:54;7.90;;;3.45;;
66663;SDS011;59683;51.428;-1.994;2023-05-07T13:34:23;6.97;;;3.65;;
66663;SDS011;59683;51.428;-1.994;2023-05-07T13:36:51;6.57;;;3.25;;
66663;SDS011;59683;51.428;-1.994;2023-05-07T13:39:17;8.60;;;3.65;;
66663;SDS011;59683;51.428;-1.994;2023-05-07T13:41:42;7.47;;;3.13;;
66663;SDS011;59683;51.428;-1.994;2023-05-07T13:44:08;5.57;;;3.20;;
66663;SDS011;59683;51.428;-1.994;2023-05-07T13:46:37;6.78;;;3.10;;
66663;SDS011;59683;51.428;-1.994;2023-05-07T13:49:02;8.90;;;3.83;;
66663;SDS011;59683;51.428;-1.994;2023-05-07T13:54:16;6.75;;;3.30;;
66663;SDS011;59683;51.428;-1.994;2023-05-07T13:56:55;6.22;;;3.10;;
66663;SDS011;59683;51.428;-1.994;2023-05-07T13:59:21;7.95;;;3.50;;
66663;SDS011;59683;51.428;-1.994;2023-05-07T14:01:55;9.77;;;3.72;;
66663;SDS011;59683;51.428;-1.994;2023-05-07T14:04:20;8.40;;;3.40;;
66663;SDS011;59683;51.428;-1.994;2023-05-07T14:06:51;7.88;;;3.60;;
66663;SDS011;59683;51.428;-1.994;2023-05-07T14:09:22;5.43;;;2.80;;
66663;SDS011;59683;51.428;-1.994;2023-05-07T14:11:48;7.00;;;3.40;;
66663;SDS011;59683;51.428;-1.994;2023-05-07T14:14:16;9.52;;;3.95;;
66663;SDS011;59683;51.428;-1.994;2023-05-07T14:16:43;9.68;;;3.97;;
66663;SDS011;59683;51.428;-1.994;2023-05-07T14:19:09;6.32;;;4.05;;
66663;SDS011;59683;51.428;-1.994;2023-05-07T14:21:35;7.88;;;4.03;;
66663;SDS011;59683;51.428;-1.994;2023-05-07T14:24:00;6.18;;;4.10;;
66663;SDS011;59683;51.428;-1.994;2023-05-07T14:26:29;8.60;;;4.28;;
66663;SDS011;59683;51.428;-1.994;2023-05-07T14:28:57;7.57;;;4.00;;
66663;SDS011;59683;51.428;-1.994;2023-05-07T14:31:32;9.52;;;4.32;;
66663;SDS011;59683;51.428;-1.994;2023-05-07T14:33:58;7.88;;;4.22;;
66663;SDS011;59683;51.428;-1.994;2023-05-07T14:36:26;8.63;;;4.72;;
66663;SDS011;59683;51.428;-1.994;2023-05-07T14:38:52;7.93;;;4.13;;
66663;SDS011;59683;51.428;-1.994;2023-05-07T14:41:30;9.37;;;4.07;;
66663;SDS011;59683;51.428;-1.994;2023-05-07T14:43:56;8.00;;;3.20;;
66663;SDS011;59683;51.428;-1.994;2023-05-07T14:46:23;8.27;;;3.08;;
66663;SDS011;59683;51.428;-1.994;2023-05-07T14:48:49;7.07;;;2.63;;
66663;SDS011;59683;51.428;-1.994;2023-05-07T14:51:15;5.90;;;2.35;;
66663;SDS011;59683;51.428;-1.994;2023-05-07T14:53:40;5.78;;;2.22;;
66663;SDS011;59683;51.428;-1.994;2023-05-07T14:56:06;5.63;;;2.45;;
66663;SDS011;59683;51.428;-1.994;2023-05-07T14:58:32;10.75;;;2.80;;
66663;SDS011;59683;51.428;-1.994;2023-05-07T15:00:59;7.10;;;2.53;;
66663;SDS011;59683;51.428;-1.994;2023-05-07T15:03:25;5.65;;;2.30;;
66663;SDS011;59683;51.428;-1.994;2023-05-07T15:05:51;8.85;;;2.00;;
66663;SDS011;59683;51.428;-1.994;2023-05-07T15:08:16;7.20;;;1.80;;
66663;SDS011;59683;51.428;-1.994;2023-05-07T15:10:42;8.63;;;2.08;;
66663;SDS011;59683;51.428;-1.994;2023-05-07T15:13:08;7.68;;;1.95;;
66663;SDS011;59683;51.428;-1.994;2023-05-07T15:15:35;5.35;;;1.50;;
66663;SDS011;59683;51.428;-1.994;2023-05-07T15:18:00;6.33;;;2.00;;
66663;SDS011;59683;51.428;-1.994;2023-05-07T15:20:26;8.00;;;1.33;;
66663;SDS011;59683;51.428;-1.994;2023-05-07T15:22:55;6.23;;;1.60;;
66663;SDS011;59683;51.428;-1.994;2023-05-07T15:25:23;6.67;;;1.50;;
66663;SDS011;59683;51.428;-1.994;2023-05-07T15:27:49;6.85;;;1.08;;
66663;SDS011;59683;51.428;-1.994;2023-05-07T15:30:22;6.27;;;1.10;;
66663;SDS011;59683;51.428;-1.994;2023-05-07T15:32:57;4.75;;;1.00;;
66663;SDS011;59683;51.428;-1.994;2023-05-07T15:35:22;4.28;;;1.05;;
66663;SDS011;59683;51.428;-1.994;2023-05-07T15:37:51;6.50;;;1.30;;
66663;SDS011;59683;51.428;-1.994;2023-05-07T15:40:24;4.60;;;1.00;;
66663;SDS011;59683;51.428;-1.994;2023-05-07T15:42:57;6.40;;;2.42;;
66663;SDS011;59683;51.428;-1.994;2023-05-07T15:45:23;9.37;;;1.57;;
66663;SDS011;59683;51.428;-1.994;2023-05-07T15:47:49;8.17;;;1.33;;
66663;SDS011;59683;51.428;-1.994;2023-05-07T15:50:14;5.70;;;1.07;;
66663;SDS011;59683;51.428;-1.994;2023-05-07T15:52:40;4.60;;;1.43;;
66663;SDS011;59683;51.428;-1.994;2023-05-07T15:55:06;4.40;;;1.13;;
66663;SDS011;59683;51.428;-1.994;2023-05-07T15:57:33;5.90;;;1.03;;
66663;SDS011;59683;51.428;-1.994;2023-05-07T15:59:58;4.20;;;1.10;;
66663;SDS011;59683;51.428;-1.994;2023-05-07T16:02:24;9.13;;;2.00;;